createdAt,value
2017-12-23T00:00:23.546Z,102129.66
2017-12-23T00:02:52.750Z,102129.69
2017-12-23T00:05:21.942Z,102113.98
2017-12-23T00:07:51.163Z,102114.16
2017-12-23T00:10:20.413Z,102119.18
2017-12-23T00:12:49.760Z,102118.23
2017-12-23T00:15:18.979Z,102119.18
2017-12-23T00:17:48.168Z,102110.88
2017-12-23T00:20:17.383Z,102117.95
2017-12-23T00:22:47.363Z,102113.22
2017-12-23T00:25:16.550Z,102111.47
2017-12-23T00:27:45.734Z,102110.02
2017-12-23T00:30:14.934Z,102118.55
2017-12-23T00:32:44.127Z,102112.18
2017-12-23T00:35:13.330Z,102113.71
2017-12-23T00:37:42.523Z,102120.76
2017-12-23T00:40:11.750Z,102108.30
2017-12-23T00:42:40.986Z,102090.95
2017-12-23T00:45:10.191Z,102083.50
2017-12-23T00:47:39.399Z,102085.13
2017-12-23T00:50:08.609Z,102083.00
2017-12-23T00:52:38.594Z,102079.34
2017-12-23T00:55:07.819Z,102071.92
2017-12-23T00:57:37.090Z,102073.42
2017-12-23T01:00:07.088Z,102077.92
2017-12-23T01:02:36.287Z,102082.53
2017-12-23T01:05:06.438Z,102080.63
2017-12-23T01:07:36.416Z,102067.89
2017-12-23T01:10:05.627Z,102066.95
2017-12-23T01:12:34.839Z,102065.70
2017-12-23T01:15:04.046Z,102060.44
2017-12-23T01:17:34.043Z,102060.47
2017-12-23T01:20:03.242Z,102063.86
2017-12-23T01:22:32.464Z,102069.55
2017-12-23T01:25:02.435Z,102065.35
2017-12-23T01:27:31.653Z,102065.22
2017-12-23T01:30:00.938Z,102064.44
2017-12-23T01:32:31.024Z,102056.44
2017-12-23T01:35:00.224Z,102045.86
2017-12-23T01:37:29.447Z,102040.98
2017-12-23T01:39:58.642Z,102045.05
2017-12-23T01:42:27.843Z,102038.23
2017-12-23T01:44:57.061Z,102034.03
2017-12-23T01:47:26.284Z,102029.45
2017-12-23T01:49:56.250Z,102022.27
2017-12-23T01:52:25.473Z,102011.83
2017-12-23T01:54:54.710Z,102015.38
2017-12-23T01:57:23.927Z,102006.84
2017-12-23T01:59:53.175Z,102002.23
2017-12-23T02:02:22.383Z,101991.92
2017-12-23T02:04:52.378Z,101987.17
2017-12-23T02:07:21.583Z,101974.97
2017-12-23T02:09:50.819Z,101980.80
2017-12-23T02:12:20.010Z,101977.30
2017-12-23T02:14:49.986Z,101984.88
2017-12-23T02:17:19.171Z,101978.52
2017-12-23T02:19:48.379Z,101973.48
2017-12-23T02:22:17.602Z,101976.85
2017-12-23T02:24:46.804Z,101976.70
2017-12-23T02:27:16.795Z,101980.23
2017-12-23T02:29:46.005Z,101978.33
2017-12-23T02:32:15.285Z,101967.64
2017-12-23T02:34:44.509Z,101958.96
2017-12-23T02:37:13.698Z,101954.89
2017-12-23T02:39:42.895Z,101956.11
2017-12-23T02:42:12.115Z,101951.91
2017-12-23T02:44:42.087Z,101956.63
2017-12-23T02:47:11.303Z,101967.61
2017-12-23T02:49:40.512Z,101964.66
2017-12-23T02:52:09.717Z,101959.64
2017-12-23T02:54:39.678Z,101951.77
2017-12-23T02:57:08.883Z,101948.52
2017-12-23T02:59:38.078Z,101951.09
2017-12-23T03:02:07.299Z,101942.98
2017-12-23T03:04:36.479Z,101942.56
2017-12-23T03:07:05.671Z,101946.91
2017-12-23T03:09:34.890Z,101948.42
2017-12-23T03:12:04.106Z,101944.48
2017-12-23T03:14:34.078Z,101946.63
2017-12-23T03:17:03.299Z,101948.00
2017-12-23T03:19:32.509Z,101955.87
2017-12-23T03:22:01.695Z,101955.31
2017-12-23T03:24:30.914Z,101943.92
2017-12-23T03:27:01.029Z,101945.01
2017-12-23T03:29:30.219Z,101939.04
2017-12-23T03:31:59.459Z,101946.39
2017-12-23T03:34:28.648Z,101941.89
2017-12-23T03:36:57.874Z,101940.00
2017-12-23T03:39:27.123Z,101931.30
2017-12-23T03:41:57.091Z,101925.48
2017-12-23T03:44:26.301Z,101926.83
2017-12-23T03:46:55.514Z,101929.41
2017-12-23T03:49:24.738Z,101930.08
2017-12-23T03:51:54.837Z,101935.77
2017-12-23T03:54:24.871Z,101937.56
2017-12-23T03:56:54.838Z,101944.20
2017-12-23T03:59:24.074Z,101948.53
2017-12-23T04:01:54.059Z,101947.72
2017-12-23T04:04:23.267Z,101945.40
2017-12-23T04:06:52.486Z,101947.43
2017-12-23T04:09:22.491Z,101954.63
2017-12-23T04:11:52.432Z,101956.22
2017-12-23T04:14:21.647Z,101961.79
2017-12-23T04:16:50.884Z,101949.72
2017-12-23T04:19:20.096Z,101953.52
2017-12-23T04:21:49.303Z,101946.58
2017-12-23T04:24:19.270Z,101951.63
2017-12-23T04:26:48.462Z,101945.50
2017-12-23T04:29:17.698Z,101951.87
2017-12-23T04:31:46.886Z,101954.45
2017-12-23T04:34:16.106Z,101951.59
2017-12-23T04:36:45.322Z,101951.91
2017-12-23T04:39:14.559Z,101947.30
2017-12-23T04:41:43.790Z,101953.52
2017-12-23T04:44:13.751Z,101943.23
2017-12-23T04:46:42.958Z,101940.92
2017-12-23T04:49:12.204Z,101939.16
2017-12-23T04:51:42.184Z,101939.97
2017-12-23T04:54:11.393Z,101940.52
2017-12-23T04:56:40.591Z,101939.58
2017-12-23T04:59:09.850Z,101941.60
2017-12-23T05:01:39.164Z,101932.68
2017-12-23T05:04:08.357Z,101933.75
2017-12-23T05:06:37.577Z,101931.71
2017-12-23T05:09:06.799Z,101929.92
2017-12-23T05:11:36.786Z,101924.22
2017-12-23T05:14:05.978Z,101907.02
2017-12-23T05:16:35.419Z,101919.47
2017-12-23T05:19:05.392Z,101916.21
2017-12-23T05:21:34.566Z,101910.63
2017-12-23T05:24:03.799Z,101903.05
2017-12-23T05:26:33.051Z,101900.48
2017-12-23T05:29:02.262Z,101900.34
2017-12-23T05:31:32.290Z,101888.41
2017-12-23T05:34:01.508Z,101902.37
2017-12-23T05:36:30.731Z,101901.97
2017-12-23T05:39:00.731Z,101901.16
2017-12-23T05:41:29.935Z,101900.61
2017-12-23T05:43:59.909Z,101899.52
2017-12-23T05:46:29.118Z,101891.39
2017-12-23T05:48:58.315Z,101885.03
2017-12-23T05:51:27.543Z,101896.12
2017-12-23T05:53:57.591Z,101891.80
2017-12-23T05:56:26.799Z,101887.34
2017-12-23T05:58:56.012Z,101888.80
2017-12-23T06:01:25.281Z,101880.97
2017-12-23T06:03:54.478Z,101883.12
2017-12-23T06:06:23.706Z,101879.89
2017-12-23T06:08:52.911Z,101881.13
2017-12-23T06:11:22.110Z,101880.99
2017-12-23T06:13:51.363Z,101865.01
2017-12-23T06:16:20.560Z,101875.96
2017-12-23T06:18:49.767Z,101871.20
2017-12-23T06:21:18.964Z,101868.63
2017-12-23T06:23:48.184Z,101863.36
2017-12-23T06:26:17.381Z,101856.30
2017-12-23T06:28:46.596Z,101850.62
2017-12-23T06:31:15.786Z,101861.59
2017-12-23T06:33:45.119Z,101854.94
2017-12-23T06:36:14.320Z,101852.92
2017-12-23T06:38:43.532Z,101853.34
2017-12-23T06:41:12.751Z,101854.02
2017-12-23T06:43:41.982Z,101849.11
2017-12-23T06:46:11.193Z,101848.58
2017-12-23T06:48:40.410Z,101850.20
2017-12-23T06:51:10.394Z,101842.06
2017-12-23T06:53:39.631Z,101831.50
2017-12-23T06:56:09.611Z,101834.19
2017-12-23T06:58:38.803Z,101849.24
2017-12-23T07:01:07.996Z,101845.58
2017-12-23T07:03:37.219Z,101855.73
2017-12-23T07:06:06.483Z,101847.22
2017-12-23T07:08:35.940Z,101848.96
2017-12-23T07:11:05.900Z,101837.33
2017-12-23T07:13:35.158Z,101840.42
2017-12-23T07:16:05.139Z,101840.44
2017-12-23T07:18:34.341Z,101846.53
2017-12-23T07:21:03.574Z,101845.86
2017-12-23T07:23:32.803Z,101858.43
2017-12-23T07:26:02.015Z,101853.98
2017-12-23T07:28:31.251Z,101859.55
2017-12-23T07:31:01.228Z,101857.08
2017-12-23T07:33:30.447Z,101861.14
2017-12-23T07:35:59.651Z,101861.55
2017-12-23T07:38:28.843Z,101864.51
2017-12-23T07:40:58.051Z,101864.91
2017-12-23T07:43:28.043Z,101871.85
2017-12-23T07:45:57.358Z,101873.34
2017-12-23T07:48:27.583Z,101880.92
2017-12-23T07:50:57.579Z,101877.94
2017-12-23T07:53:26.816Z,101869.95
2017-12-23T07:55:56.780Z,101883.37
2017-12-23T07:58:25.972Z,101889.30
2017-12-23T08:00:55.229Z,101893.09
2017-12-23T08:03:25.231Z,101887.43
2017-12-23T08:05:54.414Z,101890.55
2017-12-23T08:08:23.627Z,101893.95
2017-12-23T08:10:53.590Z,101897.88
2017-12-23T08:13:22.826Z,101889.89
2017-12-23T08:15:52.037Z,101901.67
2017-12-23T08:18:21.254Z,101895.98
2017-12-23T08:20:50.518Z,101898.13
2017-12-23T08:23:19.888Z,101895.72
2017-12-23T08:25:49.133Z,101887.72
2017-12-23T08:28:18.328Z,101885.28
2017-12-23T08:30:48.302Z,101879.18
2017-12-23T08:33:17.504Z,101876.09
2017-12-23T08:35:46.724Z,101883.40
2017-12-23T08:38:15.935Z,101879.05
2017-12-23T08:40:45.146Z,101885.19
2017-12-23T08:43:15.277Z,101886.81
2017-12-23T08:45:44.479Z,101883.14
2017-12-23T08:48:13.702Z,101887.89
2017-12-23T08:50:42.919Z,101887.75
2017-12-23T08:53:12.125Z,101888.30
2017-12-23T08:55:41.347Z,101889.11
2017-12-23T08:58:11.335Z,101884.23
2017-12-23T09:00:40.522Z,101879.47
2017-12-23T09:03:09.731Z,101878.95
2017-12-23T09:05:38.946Z,101876.37
2017-12-23T09:08:08.180Z,101873.81
2017-12-23T09:10:37.371Z,101869.18
2017-12-23T09:13:06.563Z,101867.98
2017-12-23T09:15:35.782Z,101867.30
2017-12-23T09:18:05.007Z,101865.66
2017-12-23T09:20:34.184Z,101858.08
2017-12-23T09:23:03.459Z,101854.16
2017-12-23T09:25:32.667Z,101853.45
2017-12-23T09:28:01.958Z,101850.36
2017-12-23T09:30:31.156Z,101847.80
2017-12-23T09:33:00.427Z,101853.34
2017-12-23T09:35:30.603Z,101854.56
2017-12-23T09:37:59.822Z,101853.74
2017-12-23T09:40:29.070Z,101847.51
2017-12-23T09:42:58.287Z,101860.66
2017-12-23T09:45:27.744Z,101851.85
2017-12-23T09:47:57.703Z,101852.11
2017-12-23T09:50:26.943Z,101851.05
2017-12-23T09:52:56.142Z,101854.03
2017-12-23T09:55:25.368Z,101846.71
2017-12-23T09:57:55.335Z,101843.87
2017-12-23T10:00:24.563Z,101832.48
2017-12-23T10:02:54.534Z,101832.20
2017-12-23T10:05:23.794Z,101832.07
2017-12-23T10:07:53.948Z,101830.30
2017-12-23T10:10:23.170Z,101825.98
2017-12-23T10:12:52.387Z,101830.85
2017-12-23T10:15:21.586Z,101819.61
2017-12-23T10:17:50.809Z,101821.52
2017-12-23T10:20:20.008Z,101819.86
2017-12-23T10:22:49.250Z,101832.20
2017-12-23T10:25:18.463Z,101836.27
2017-12-23T10:27:47.690Z,101826.92
2017-12-23T10:30:17.657Z,101828.42
2017-12-23T10:32:46.871Z,101834.38
2017-12-23T10:35:16.115Z,101832.61
2017-12-23T10:37:45.339Z,101823.11
2017-12-23T10:40:14.573Z,101825.01
2017-12-23T10:42:43.798Z,101821.91
2017-12-23T10:45:13.830Z,101819.75
2017-12-23T10:47:43.046Z,101821.21
2017-12-23T10:50:12.266Z,101834.66
2017-12-23T10:52:41.666Z,101832.36
2017-12-23T10:55:10.855Z,101816.61
2017-12-23T10:57:40.132Z,101812.83
2017-12-23T11:00:09.364Z,101813.48
2017-12-23T11:02:38.586Z,101805.51
2017-12-23T11:05:07.790Z,101802.23
2017-12-23T11:07:37.770Z,101808.20
2017-12-23T11:10:06.995Z,101799.95
2017-12-23T11:12:36.203Z,101802.13
2017-12-23T11:15:06.179Z,101795.47
2017-12-23T11:17:35.562Z,101799.68
2017-12-23T11:20:04.767Z,101796.02
2017-12-23T11:22:34.047Z,101797.36
2017-12-23T11:25:03.256Z,101800.63
2017-12-23T11:27:32.476Z,101796.55
2017-12-23T11:30:01.690Z,101793.30
2017-12-23T11:32:30.899Z,101798.59
2017-12-23T11:35:00.100Z,101798.03
2017-12-23T11:37:30.091Z,101798.72
2017-12-23T11:40:00.110Z,101788.00
2017-12-23T11:42:29.343Z,101788.43
2017-12-23T11:44:59.331Z,101791.40
2017-12-23T11:47:28.527Z,101792.77
2017-12-23T11:49:57.753Z,101787.48
2017-12-23T11:52:27.705Z,101789.10
2017-12-23T11:54:56.915Z,101785.56
2017-12-23T11:57:26.103Z,101791.53
2017-12-23T11:59:55.316Z,101791.81
2017-12-23T12:02:24.519Z,101779.72
2017-12-23T12:04:53.750Z,101790.46
2017-12-23T12:07:23.728Z,101780.56
2017-12-23T12:09:52.943Z,101779.72
2017-12-23T12:12:22.149Z,101787.75
2017-12-23T12:14:51.402Z,101773.91
2017-12-23T12:17:20.582Z,101781.48
2017-12-23T12:19:49.778Z,101773.91
2017-12-23T12:22:18.998Z,101766.98
2017-12-23T12:24:48.219Z,101754.23
2017-12-23T12:27:17.408Z,101759.68
2017-12-23T12:29:46.619Z,101751.96
2017-12-23T12:32:15.827Z,101746.41
2017-12-23T12:34:45.048Z,101751.53
2017-12-23T12:37:14.330Z,101739.20
2017-12-23T12:39:44.307Z,101742.30
2017-12-23T12:42:13.515Z,101740.16
2017-12-23T12:44:42.717Z,101725.37
2017-12-23T12:47:11.919Z,101727.69
2017-12-23T12:49:41.126Z,101727.55
2017-12-23T12:52:10.327Z,101717.09
2017-12-23T12:54:40.324Z,101717.78
2017-12-23T12:57:09.615Z,101702.59
2017-12-23T12:59:38.938Z,101708.56
2017-12-23T13:02:08.149Z,101700.98
2017-12-23T13:04:38.123Z,101700.31
2017-12-23T13:07:07.428Z,101696.65
2017-12-23T13:09:37.081Z,101688.66
2017-12-23T13:12:06.290Z,101692.97
2017-12-23T13:14:35.530Z,101677.77
2017-12-23T13:17:04.761Z,101682.51
2017-12-23T13:19:33.991Z,101689.30
2017-12-23T13:22:03.209Z,101691.33
2017-12-23T13:24:32.436Z,101689.02
2017-12-23T13:27:01.680Z,101680.48
2017-12-23T13:29:30.897Z,101682.66
2017-12-23T13:32:00.115Z,101683.59
2017-12-23T13:34:29.381Z,101685.91
2017-12-23T13:36:58.592Z,101691.18
2017-12-23T13:39:27.809Z,101690.36
2017-12-23T13:41:57.077Z,101683.72
2017-12-23T13:44:26.307Z,101680.88
2017-12-23T13:46:55.607Z,101677.20
2017-12-23T13:49:24.838Z,101683.19
2017-12-23T13:51:54.166Z,101682.91
2017-12-23T13:54:24.199Z,101676.94
2017-12-23T13:56:53.442Z,101681.15
2017-12-23T13:59:22.643Z,101670.84
2017-12-23T14:01:52.636Z,101667.73
2017-12-23T14:04:21.915Z,101669.52
2017-12-23T14:06:51.132Z,101663.53
2017-12-23T14:09:20.386Z,101673.70
2017-12-23T14:11:49.827Z,101659.88
2017-12-23T14:14:19.056Z,101664.48
2017-12-23T14:16:48.352Z,101666.36
2017-12-23T14:19:17.555Z,101656.45
2017-12-23T14:21:47.568Z,101659.06
2017-12-23T14:24:16.808Z,101655.69
2017-12-23T14:26:46.064Z,101648.08
2017-12-23T14:29:16.092Z,101654.59
2017-12-23T14:31:46.058Z,101657.70
2017-12-23T14:34:15.339Z,101646.05
2017-12-23T14:36:44.586Z,101646.72
2017-12-23T14:39:13.802Z,101646.30
2017-12-23T14:41:43.816Z,101647.39
2017-12-23T14:44:13.806Z,101648.34
2017-12-23T14:46:43.022Z,101652.70
2017-12-23T14:49:12.228Z,101650.53
2017-12-23T14:51:42.225Z,101649.44
2017-12-23T14:54:11.420Z,101647.40
2017-12-23T14:56:40.665Z,101646.74
2017-12-23T14:59:09.879Z,101643.47
2017-12-23T15:01:39.242Z,101641.45
2017-12-23T15:04:09.254Z,101643.75
2017-12-23T15:06:39.255Z,101639.00
2017-12-23T15:09:08.476Z,101651.08
2017-12-23T15:11:37.732Z,101648.77
2017-12-23T15:14:06.927Z,101655.29
2017-12-23T15:16:36.271Z,101654.20
2017-12-23T15:19:05.493Z,101657.45
2017-12-23T15:21:34.714Z,101650.25
2017-12-23T15:24:03.947Z,101657.99
2017-12-23T15:26:33.948Z,101654.33
2017-12-23T15:29:03.158Z,101654.05
2017-12-23T15:31:33.156Z,101654.86
2017-12-23T15:34:02.382Z,101652.68
2017-12-23T15:36:31.582Z,101649.98
2017-12-23T15:39:01.599Z,101650.52
2017-12-23T15:41:31.559Z,101652.56
2017-12-23T15:44:00.788Z,101652.16
2017-12-23T15:46:30.018Z,101649.84
2017-12-23T15:48:59.210Z,101649.32
2017-12-23T15:51:28.511Z,101649.45
2017-12-23T15:53:58.467Z,101656.64
2017-12-23T15:56:27.722Z,101655.13
2017-12-23T15:58:56.911Z,101650.10
2017-12-23T16:01:26.941Z,101646.97
2017-12-23T16:03:56.158Z,101649.27
2017-12-23T16:06:25.359Z,101644.41
2017-12-23T16:08:54.567Z,101648.22
2017-12-23T16:11:23.778Z,101644.70
2017-12-23T16:13:53.023Z,101650.39
2017-12-23T16:16:23.003Z,101651.44
2017-12-23T16:18:52.229Z,101654.30
2017-12-23T16:21:22.218Z,101648.73
2017-12-23T16:23:51.450Z,101647.64
2017-12-23T16:26:20.701Z,101654.81
2017-12-23T16:28:50.552Z,101654.81
2017-12-23T16:31:20.516Z,101654.83
2017-12-23T16:33:49.727Z,101646.01
2017-12-23T16:36:18.997Z,101643.41
2017-12-23T16:38:48.235Z,101641.00
2017-12-23T16:41:17.459Z,101645.73
2017-12-23T16:43:47.448Z,101645.45
2017-12-23T16:46:16.661Z,101650.20
2017-12-23T16:48:45.865Z,101649.66
2017-12-23T16:51:15.056Z,101644.92
2017-12-23T16:53:44.276Z,101647.48
2017-12-23T16:56:13.520Z,101652.88
2017-12-23T16:58:42.778Z,101649.23
2017-12-23T17:01:11.983Z,101642.05
2017-12-23T17:03:41.209Z,101636.09
2017-12-23T17:06:10.426Z,101640.56
2017-12-23T17:08:39.642Z,101643.01
2017-12-23T17:11:08.883Z,101629.16
2017-12-23T17:13:38.083Z,101629.70
2017-12-23T17:16:07.302Z,101619.13
2017-12-23T17:18:36.519Z,101612.73
2017-12-23T17:21:05.765Z,101613.15
2017-12-23T17:23:35.004Z,101617.64
2017-12-23T17:26:04.220Z,101619.91
2017-12-23T17:28:50.856Z,101619.23
2017-12-23T17:31:20.069Z,101629.55
2017-12-23T17:33:49.295Z,101621.67
2017-12-23T17:36:18.542Z,101610.02
2017-12-23T17:38:48.507Z,101612.18
2017-12-23T17:41:17.738Z,101621.13
2017-12-23T17:43:46.972Z,101622.34
2017-12-23T17:46:16.230Z,101618.55
2017-12-23T17:48:45.428Z,101620.16
2017-12-23T17:51:14.654Z,101621.62
2017-12-23T17:53:43.855Z,101624.61
2017-12-23T17:56:13.058Z,101622.45
2017-12-23T17:58:43.048Z,101618.66
2017-12-23T18:01:12.277Z,101621.62
2017-12-23T18:03:41.475Z,101615.75
2017-12-23T18:06:10.708Z,101614.29
2017-12-23T18:08:39.960Z,101626.49
2017-12-23T18:11:09.188Z,101622.30
2017-12-23T18:13:38.379Z,101616.70
2017-12-23T18:16:07.600Z,101614.42
2017-12-23T18:18:36.836Z,101617.02
2017-12-23T18:21:06.043Z,101622.42
2017-12-23T18:23:35.269Z,101616.31
2017-12-23T18:26:04.467Z,101606.09
2017-12-23T18:28:33.754Z,101599.19
2017-12-23T18:31:02.982Z,101598.01
2017-12-23T18:33:32.222Z,101593.77
2017-12-23T18:36:02.218Z,101591.20
2017-12-23T18:38:31.498Z,101596.74
2017-12-23T18:41:00.765Z,101584.29
2017-12-23T18:43:29.979Z,101594.45
2017-12-23T18:45:59.208Z,101590.94
2017-12-23T18:48:28.458Z,101579.97
2017-12-23T18:50:57.677Z,101584.95
2017-12-23T18:53:26.927Z,101582.11
2017-12-23T18:55:56.903Z,101571.94
2017-12-23T18:58:26.126Z,101568.77
2017-12-23T19:00:55.367Z,101566.61
2017-12-23T19:03:24.599Z,101568.11
2017-12-23T19:05:53.876Z,101571.20
2017-12-23T19:08:23.068Z,101567.91
2017-12-23T19:10:52.275Z,101560.86
2017-12-23T19:13:21.518Z,101567.50
2017-12-23T19:15:51.511Z,101555.98
2017-12-23T19:18:20.804Z,101562.68
2017-12-23T19:20:50.176Z,101555.06
2017-12-23T19:23:19.384Z,101553.30
2017-12-23T19:25:48.605Z,101556.70
2017-12-23T19:28:17.903Z,101554.37
2017-12-23T19:30:47.183Z,101561.84
2017-12-23T19:33:16.403Z,101553.73
2017-12-23T19:35:45.660Z,101555.84
2017-12-23T19:38:14.937Z,101550.41
2017-12-23T19:40:44.218Z,101551.08
2017-12-23T19:43:14.292Z,101555.03
2017-12-23T19:45:43.520Z,101552.34
2017-12-23T19:48:12.780Z,101545.42
2017-12-23T19:50:42.134Z,101550.30
2017-12-23T19:53:12.177Z,101546.75
2017-12-23T19:55:41.547Z,101545.80
2017-12-23T19:58:10.863Z,101546.72
2017-12-23T20:00:41.018Z,101551.59
2017-12-23T20:03:10.255Z,101550.27
2017-12-23T20:05:39.487Z,101545.39
2017-12-23T20:08:08.817Z,101545.65
2017-12-23T20:10:38.432Z,101546.31
2017-12-23T20:13:07.803Z,101541.31
2017-12-23T20:15:37.050Z,101541.72
2017-12-23T20:18:06.366Z,101534.27
2017-12-23T20:20:35.639Z,101532.77
2017-12-23T20:23:04.958Z,101536.92
2017-12-23T20:25:34.338Z,101532.71
2017-12-23T20:28:03.572Z,101535.16
2017-12-23T20:30:33.752Z,101523.09
2017-12-23T20:33:02.996Z,101523.76
2017-12-23T20:35:33.003Z,101512.91
2017-12-23T20:38:03.075Z,101511.28
2017-12-23T20:40:32.460Z,101523.33
2017-12-23T20:43:01.886Z,101520.32
2017-12-23T20:45:31.128Z,101518.96
2017-12-23T20:48:00.538Z,101514.31
2017-12-23T20:50:29.762Z,101513.76
2017-12-23T20:52:59.032Z,101521.94
2017-12-23T20:55:29.051Z,101527.48
2017-12-23T20:57:59.182Z,101529.64
2017-12-23T21:00:29.353Z,101522.23
2017-12-23T21:02:58.780Z,101512.88
2017-12-23T21:05:28.080Z,101511.92
2017-12-23T21:07:58.157Z,101498.37
2017-12-23T21:10:27.470Z,101505.31
2017-12-23T21:12:56.861Z,101510.59
2017-12-23T21:15:26.118Z,101498.52
2017-12-23T21:17:56.136Z,101498.78
2017-12-23T21:20:25.483Z,101509.27
2017-12-23T21:22:54.750Z,101495.15
2017-12-23T21:25:23.989Z,101489.28
2017-12-23T21:27:53.511Z,101495.81
2017-12-23T21:30:23.593Z,101485.64
2017-12-23T21:32:53.532Z,101489.02
2017-12-23T21:35:22.910Z,101494.59
2017-12-23T21:37:52.102Z,101490.01
2017-12-23T21:40:21.504Z,101480.48
2017-12-23T21:42:50.877Z,101487.09
2017-12-23T21:45:20.439Z,101500.22
2017-12-23T21:47:50.666Z,101500.25
2017-12-23T21:50:19.937Z,101496.44
2017-12-23T21:52:49.203Z,101494.71
2017-12-23T21:55:19.385Z,101496.33
2017-12-23T21:57:48.880Z,101489.17
2017-12-23T22:00:18.205Z,101495.41
2017-12-23T22:02:47.432Z,101500.69
2017-12-23T22:05:16.688Z,101491.08
2017-12-23T22:07:45.926Z,101485.77
2017-12-23T22:10:15.222Z,101484.70
2017-12-23T22:12:44.477Z,101473.55
2017-12-23T22:15:13.693Z,101476.95
2017-12-23T22:17:43.693Z,101473.55
2017-12-23T22:20:12.989Z,101465.41
2017-12-23T22:22:42.220Z,101466.91
2017-12-23T22:25:12.229Z,101470.14
2017-12-23T22:27:42.233Z,101465.66
2017-12-23T22:30:11.451Z,101459.72
2017-12-23T22:32:41.418Z,101463.38
2017-12-23T22:35:10.752Z,101453.84
2017-12-23T22:37:40.003Z,101447.28
2017-12-23T22:40:09.979Z,101450.95
2017-12-23T22:42:39.999Z,101453.84
2017-12-23T22:45:10.016Z,101446.29
2017-12-23T22:47:40.000Z,101443.69
2017-12-23T22:50:09.216Z,101444.38
2017-12-23T22:52:39.226Z,101443.87
2017-12-23T22:55:08.436Z,101443.02
2017-12-23T22:57:38.501Z,101421.72
2017-12-23T23:00:07.714Z,101419.11
2017-12-23T23:02:36.960Z,101414.23
2017-12-23T23:05:06.952Z,101399.86
2017-12-23T23:07:36.339Z,101406.38
2017-12-23T23:10:05.562Z,101395.53
2017-12-23T23:12:35.571Z,101402.91
2017-12-23T23:15:05.562Z,101411.70
2017-12-23T23:17:34.784Z,101421.20
2017-12-23T23:20:04.797Z,101419.27
2017-12-23T23:22:34.074Z,101411.52
2017-12-23T23:25:03.290Z,101418.05
2017-12-23T23:27:33.303Z,101424.14
2017-12-23T23:30:02.502Z,101419.11
2017-12-23T23:32:32.561Z,101419.67
2017-12-23T23:35:01.783Z,101416.00
2017-12-23T23:37:31.027Z,101421.94
2017-12-23T23:40:01.031Z,101414.78
2017-12-23T23:42:30.261Z,101395.64
2017-12-23T23:44:59.449Z,101412.63
2017-12-23T23:47:28.763Z,101414.31
2017-12-23T23:49:58.800Z,101411.19
2017-12-23T23:52:28.020Z,101401.55
2017-12-23T23:54:57.234Z,101410.50
2017-12-23T23:57:26.608Z,101386.91
2017-12-23T23:59:55.815Z,101395.28
